Time;durP1;ratioP1;P1;durP2;ratioP2;P2;SDS_P1;SDS_P2;PMS_P1;PMS_P2;Temp;Humidity;BMP_temperature;BMP_pressure;BME280_temperature;BME280_humidity;BME280_pressure;Samples;Min_cycle;Max_cycle;Signal;HPM_P1;HPM_P2
2023/05/25 08:52:56;;;;;;;;;;;;;;;;;;5003458;28;19917;-96
2023/05/25 08:55:28;;;;;;;;;;;;;;;;;;5014597;28;19898;-95
2023/05/25 08:58:02;;;;;;;;;;;;;;;;;;5018744;28;19952;-96
2023/05/25 09:00:31;;;;;;;;;;;;;;;;;;4993337;28;19920;-95
2023/05/25 09:03:09;;;;;;;;;;;;;;;;;;5011986;23;19933;-94
2023/05/25 09:05:35;;;;;;;;;;;;;;;;;;4978190;28;19922;-83
2023/05/25 09:08:02;;;;;;;;;;;;;;;;;;4995381;28;20016;-90
2023/05/25 09:10:29;;;;;;;;;;;;;;;;;;4995194;28;19918;-88
2023/05/25 09:12:54;;;;;;;;;;;;;;;;;;4994994;28;19920;-88
2023/05/25 09:15:20;;;;;;;;;;;;;;;;;;4995386;28;19914;-86
2023/05/25 09:17:45;;;;;;;;;;;;;;;;;;4995424;28;19960;-89
2023/05/25 09:20:12;;;;;;;;;;;;;;;;;;4994719;28;19945;-92
2023/05/25 09:22:37;;;;;;;;;;;;;;;;;;4978204;28;19983;-91
2023/05/25 09:25:05;;;;;;;;;;;;;;;;;;4994680;28;20353;-90
2023/05/25 09:27:33;;;;;;;;;;;;;;;;;;4976860;28;19920;-89
2023/05/25 09:30:00;;;;;;;;;;;;;;;;;;4960889;28;20317;-90
2023/05/25 09:32:25;;;;;;;;;;;;;;;;;;4994744;28;19925;-89
2023/05/25 09:34:52;;;;;;;;;;;;;;;;;;4994585;28;20005;-89
2023/05/25 09:37:20;;;;;;;;;;;;;;;;;;4994429;28;19921;-90
2023/05/25 09:39:46;;;;;;;;;;;;;;;;;;4976942;28;19914;-90
2023/05/25 09:42:12;;;;;;;;;;;;;;;;;;4994430;28;19914;-89
2023/05/25 09:44:37;;;;;;;;;;;;;;;;;;4994721;28;19921;-90
2023/05/25 09:47:03;;;;;;;;;;;;;;;;;;4997977;28;19967;-89
2023/05/25 09:49:28;;;;;;;;;;;;;;;;;;4997840;28;19913;-89
2023/05/25 09:51:56;;;;;;;;;;;;;;;;;;4998038;28;19918;-89
2023/05/25 09:54:22;;;;;;;;;;;;;;;;;;4997948;28;19960;-89
2023/05/25 09:56:47;;;;;;;;;;;;;;;;;;4997932;28;19968;-91
2023/05/25 09:59:12;;;;;;;;;;;;;;;;;;4980664;28;20265;-89
2023/05/25 10:01:38;;;;;;;;;;;;;;;;;;4998152;28;19914;-89
2023/05/25 10:04:03;;;;;;;;;;;;;;;;;;4980216;28;19917;-90
2023/05/25 10:06:30;;;;;;;;;;;;;;;;;;4998009;28;19921;-90
2023/05/25 10:08:59;;;;;;;;;;;;;;;;;;4997764;28;19913;-90
2023/05/25 10:11:26;;;;;;;;;;;;;;;;;;4997739;28;19949;-89
2023/05/25 10:13:52;;;;;;;;;;;;;;;;;;4980490;28;19913;-89
2023/05/25 10:16:20;;;;;;;;;;;;;;;;;;4998064;28;20023;-89
2023/05/25 10:19:02;;;;;;;;;;;;;;;;;;4997901;28;19921;-89
2023/05/25 10:21:29;;;;;;;;;;;;;;;;;;4997956;28;19914;-90
2023/05/25 10:23:58;;;;;;;;;;;;;;;;;;4997576;28;20045;-89
2023/05/25 10:26:26;;;;;;;;;;;;;;;;;;4997628;28;20361;-89
2023/05/25 10:28:55;;;;;;;;;;;;;;;;;;4997220;28;19920;-89
2023/05/25 10:31:20;;;;;;;;;;;;;;;;;;4997845;28;20266;-88
2023/05/25 10:33:46;;;;;;;;;;;;;;;;;;4998516;28;19921;-88
2023/05/25 10:36:16;;;;;;;;;;;;;;;;;;4979544;28;19975;-90
2023/05/25 10:38:43;;;;;;;;;;;;;;;;;;4997386;28;19913;-89
2023/05/25 10:41:09;;;;;;;;;;;;;;;;;;4979989;28;19960;-91
2023/05/25 10:43:36;;;;;;;;;;;;;;;;;;4980082;28;20282;-92
2023/05/25 10:46:01;;;;;;;;;;;;;;;;;;4997542;28;20388;-92
2023/05/25 10:48:43;;;;;;;;;;;;;;;;;;4980155;28;19965;-91
2023/05/25 10:51:09;;;;;;;;;;;;;;;;;;4997420;28;20380;-91
2023/05/25 10:53:34;;;;;;;;;;;;;;;;;;4997257;28;19925;-91
2023/05/25 10:56:03;;;;;;;;;;;;;;;;;;4979304;28;19960;-92
2023/05/25 10:58:29;;;;;;;;;;;;;;;;;;4996561;28;19948;-90
2023/05/25 11:00:58;;;;;;;;;;;;;;;;;;4979349;28;19924;-89
2023/05/25 11:03:45;;;;;;;;;;;;;;;;;;4979414;28;20327;-93
2023/05/25 11:06:12;;;;;;;;;;;;;;;;;;4997047;28;19914;-91
2023/05/25 11:08:49;;;;;;;;;;;;;;;;;;4979032;28;19914;-91
2023/05/25 11:11:15;;;;;;;;;;;;;;;;;;4979251;28;20377;-91
2023/05/25 11:13:44;;;;;;;;;;;;;;;;;;4979355;28;19913;-91
2023/05/25 11:16:16;;;;;;;;;;;;;;;;;;4979079;28;19936;-92
2023/05/25 11:18:42;;;;;;;;;;;;;;;;;;4997052;28;19921;-92
2023/05/25 11:21:31;;;;;;;;;;;;;;;;;;4996747;28;19923;-92
2023/05/25 11:23:56;;;;;;;;;;;;;;;;;;4991159;28;19920;-90
2023/05/25 11:26:31;;;;;;;;;;;;;;;;;;4996251;28;20320;-91
2023/05/25 11:28:58;;;;;;;;;;;;;;;;;;4978955;28;19913;-91
2023/05/25 11:31:33;;;;;;;;;;;;;;;;;;4979138;28;19984;-89
2023/05/25 11:34:03;;;;;;;;;;;;;;;;;;4978847;28;19960;-92
2023/05/25 11:36:30;;;;;;;;;;;;;;;;;;4996413;28;20261;-92
2023/05/25 11:38:56;;;;;;;;;;;;;;;;;;4979225;28;20380;-93
2023/05/25 11:41:22;;;;;;;;;;;;;;;;;;4979305;28;19914;-94
2023/05/25 11:43:48;;;;;;;;;;;;;;;;;;4979036;28;19914;-91
2023/05/25 18:10:05;;;;;;;;;;;;;;;;;;4982080;28;19917;-92
2023/05/25 18:12:31;;;;;;;;;;;;;;;;;;5018205;28;19917;-92
2023/05/25 18:14:56;;;;;;;;;;;;;;;;;;5000506;28;20340;-91
2023/05/25 18:17:21;;;;;;;;;;;;;;;;;;4998602;28;19932;-90
2023/05/25 18:19:47;;;;;;;;;;;;;;;;;;5008019;28;19917;-90
2023/05/25 18:22:12;;;;;;;;;;;;;;;;;;5010432;28;19913;-89
2023/05/25 18:24:37;;;;;;;;;;;;;;;;;;5018830;28;19917;-91
2023/05/25 18:27:03;;;;;;;;;;;;;;;;;;5021025;28;20279;-89
2023/05/25 18:29:29;;;;;;;;;;;;;;;;;;4999449;28;20352;-89
2023/05/25 18:31:54;;;;;;;;;;;;;;;;;;5017001;28;19913;-89
2023/05/25 18:34:20;;;;;;;;;;;;;;;;;;5004787;28;20339;-89
2023/05/25 18:36:45;;;;;;;;;;;;;;;;;;5036920;28;20244;-90
2023/05/25 18:39:10;;;;;;;;;;;;;;;;;;5018357;28;19920;-91
2023/05/25 18:41:36;;;;;;;;;;;;;;;;;;5019129;28;19920;-90
2023/05/25 18:44:01;;;;;;;;;;;;;;;;;;5036418;28;19936;-90
2023/05/25 18:46:27;;;;;;;;;;;;;;;;;;5018513;28;19917;-91
2023/05/25 18:48:53;;;;;;;;;;;;;;;;;;5006950;28;20348;-91
2023/05/25 18:51:21;;;;;;;;;;;;;;;;;;5018090;28;19920;-93
2023/05/25 18:53:47;;;;;;;;;;;;;;;;;;5016933;28;20390;-89
2023/05/25 18:56:12;;;;;;;;;;;;;;;;;;5016764;28;19913;-92
2023/05/25 18:58:38;;;;;;;;;;;;;;;;;;5000300;28;20360;-92
2023/05/25 19:01:03;;;;;;;;;;;;;;;;;;4999923;28;20347;-92
2023/05/25 19:03:29;;;;;;;;;;;;;;;;;;4999559;28;19959;-93
2023/05/25 19:05:54;;;;;;;;;;;;;;;;;;5017080;28;19913;-92
2023/05/25 19:08:19;;;;;;;;;;;;;;;;;;4999535;28;20000;-93
2023/05/25 19:10:45;;;;;;;;;;;;;;;;;;4999104;28;19917;-91
2023/05/25 19:13:10;;;;;;;;;;;;;;;;;;5016591;28;19913;-91
2023/05/25 19:15:36;;;;;;;;;;;;;;;;;;5016306;28;20360;-94
2023/05/25 19:18:02;;;;;;;;;;;;;;;;;;5001107;28;19948;-93
2023/05/25 19:20:28;;;;;;;;;;;;;;;;;;4999145;28;19923;-93
2023/05/25 19:22:53;;;;;;;;;;;;;;;;;;5000684;28;19937;-94
2023/05/25 19:25:25;;;;;;;;;;;;;;;;;;5024502;28;19914;-94
2023/05/25 19:27:50;;;;;;;;;;;;;;;;;;5020963;28;19917;-95
2023/05/25 19:30:16;;;;;;;;;;;;;;;;;;5034003;28;19920;-96
2023/05/25 19:32:41;;;;;;;;;;;;;;;;;;5035451;28;19914;-96
2023/05/25 19:35:07;;;;;;;;;;;;;;;;;;5014702;28;20412;-96
2023/05/25 19:37:33;;;;;;;;;;;;;;;;;;5008339;28;19919;-96
2023/05/25 19:39:59;;;;;;;;;;;;;;;;;;5000112;28;19956;-96
2023/05/25 19:42:24;;;;;;;;;;;;;;;;;;5006761;28;19913;-96
2023/05/25 19:44:49;;;;;;;;;;;;;;;;;;5006198;28;19920;-96
2023/05/25 19:47:15;;;;;;;;;;;;;;;;;;5002162;28;19914;-96
2023/05/25 19:49:40;;;;;;;;;;;;;;;;;;5001852;28;19913;-96
2023/05/25 19:52:05;;;;;;;;;;;;;;;;;;5010292;28;19897;-94
2023/05/25 19:54:31;;;;;;;;;;;;;;;;;;5005017;28;20012;-96
2023/05/25 19:56:56;;;;;;;;;;;;;;;;;;5001717;28;19959;-92
2023/05/25 19:59:26;;;;;;;;;;;;;;;;;;5016761;28;20358;-92
2023/05/25 20:01:51;;;;;;;;;;;;;;;;;;4998808;28;19980;-92
2023/05/25 20:04:17;;;;;;;;;;;;;;;;;;5015838;28;19955;-93
2023/05/25 20:06:42;;;;;;;;;;;;;;;;;;5015656;28;19964;-93
2023/05/25 20:09:11;;;;;;;;;;;;;;;;;;4998283;28;19953;-92
2023/05/25 20:11:36;;;;;;;;;;;;;;;;;;5016080;28;19917;-93
2023/05/25 20:14:01;;;;;;;;;;;;;;;;;;4998590;28;20052;-93
2023/05/25 20:16:27;;;;;;;;;;;;;;;;;;4998193;28;19935;-92
2023/05/25 20:18:52;;;;;;;;;;;;;;;;;;5015837;28;19913;-91
2023/05/25 20:21:18;;;;;;;;;;;;;;;;;;4998038;28;20334;-92
2023/05/25 20:23:44;;;;;;;;;;;;;;;;;;4998019;28;19913;-92
2023/05/25 20:26:09;;;;;;;;;;;;;;;;;;4998584;28;19913;-92
2023/05/25 20:28:35;;;;;;;;;;;;;;;;;;4997501;28;19921;-92
2023/05/25 20:31:00;;;;;;;;;;;;;;;;;;4998600;28;20411;-92
2023/05/25 20:33:25;;;;;;;;;;;;;;;;;;4999436;28;19913;-93
2023/05/25 20:35:51;;;;;;;;;;;;;;;;;;4998609;28;19960;-92
2023/05/25 20:38:16;;;;;;;;;;;;;;;;;;4997567;28;20253;-88
2023/05/25 20:40:41;;;;;;;;;;;;;;;;;;5014926;28;20288;-88
2023/05/25 20:43:07;;;;;;;;;;;;;;;;;;4997149;28;19925;-88
2023/05/25 20:45:32;;;;;;;;;;;;;;;;;;5014640;28;19920;-87
2023/05/25 20:48:01;;;;;;;;;;;;;;;;;;4997054;28;19918;-88
2023/05/25 20:50:27;;;;;;;;;;;;;;;;;;5015014;28;19913;-88
2023/05/25 20:52:52;;;;;;;;;;;;;;;;;;4997398;28;19920;-92
2023/05/25 20:55:18;;;;;;;;;;;;;;;;;;4997939;28;19913;-93
2023/05/25 20:57:44;;;;;;;;;;;;;;;;;;4998076;28;20272;-92
2023/05/25 21:00:10;;;;;;;;;;;;;;;;;;4997854;28;19910;-93
2023/05/25 21:02:35;;;;;;;;;;;;;;;;;;4997508;28;19918;-92
2023/05/25 21:05:00;;;;;;;;;;;;;;;;;;5014921;28;20048;-92
2023/05/25 21:07:25;;;;;;;;;;;;;;;;;;4997556;28;19945;-92
2023/05/25 21:09:51;;;;;;;;;;;;;;;;;;4997196;28;19918;-92
2023/05/25 21:12:16;;;;;;;;;;;;;;;;;;5015254;28;19914;-93
2023/05/25 21:14:41;;;;;;;;;;;;;;;;;;5015140;28;19960;-92
2023/05/25 21:17:07;;;;;;;;;;;;;;;;;;4997539;28;19968;-93
2023/05/25 21:19:32;;;;;;;;;;;;;;;;;;5015521;28;19956;-90
2023/05/25 21:21:57;;;;;;;;;;;;;;;;;;4982463;28;20372;-93
2023/05/25 21:24:23;;;;;;;;;;;;;;;;;;4998747;28;20051;-91
2023/05/25 21:26:48;;;;;;;;;;;;;;;;;;5016121;28;20308;-91
2023/05/25 21:29:13;;;;;;;;;;;;;;;;;;5015187;28;20388;-91
2023/05/25 21:31:38;;;;;;;;;;;;;;;;;;4997245;28;19925;-91
2023/05/25 21:34:04;;;;;;;;;;;;;;;;;;4997756;28;19913;-93
2023/05/25 21:36:31;;;;;;;;;;;;;;;;;;5014793;28;19913;-93
2023/05/25 21:38:56;;;;;;;;;;;;;;;;;;4997399;28;19913;-91
2023/05/25 21:41:22;;;;;;;;;;;;;;;;;;4997740;28;19913;-91
2023/05/25 21:43:47;;;;;;;;;;;;;;;;;;5000458;28;19918;-92
2023/05/25 21:46:14;;;;;;;;;;;;;;;;;;5018328;28;20357;-93
2023/05/25 21:48:39;;;;;;;;;;;;;;;;;;5018117;28;20000;-94
